Time;durP1;ratioP1;P1;durP2;ratioP2;P2;SDS_P1;SDS_P2;PMS_P1;PMS_P2;Temp;Humidity;BMP_temperature;BMP_pressure;BME280_temperature;BME280_humidity;BME280_pressure;Samples;Min_cycle;Max_cycle;Signal;HPM_P1;HPM_P2
2023/09/16 00:00:10;;;;;;;15.83;14.33;;;16.60;76.00;;;;;;5075397;28;20696;-45
2023/09/16 00:02:36;;;;;;;13.37;12.17;;;16.60;75.90;;;;;;5075107;28;20260;-45
2023/09/16 00:05:03;;;;;;;13.97;12.67;;;16.60;76.30;;;;;;5074901;28;20699;-45
2023/09/16 00:07:28;;;;;;;13.70;12.40;;;16.60;54.20;;;;;;5052963;28;20169;-45
2023/09/16 00:09:57;;;;;;;14.90;13.63;;;16.50;40.90;;;;;;5074392;28;20530;-45
2023/09/16 00:12:26;;;;;;;15.47;13.97;;;16.60;38.60;;;;;;5054340;28;20205;-45
2023/09/16 00:14:52;;;;;;;15.47;14.10;;;16.50;20.50;;;;;;5071091;28;20543;-45
2023/09/16 00:17:18;;;;;;;15.00;13.70;;;16.50;16.40;;;;;;5075076;28;20530;-45
2023/09/16 00:19:44;;;;;;;15.37;13.87;;;16.50;8.90;;;;;;5074454;28;20431;-45
2023/09/16 00:22:10;;;;;;;14.60;13.20;;;16.50;8.00;;;;;;5075659;28;20193;-45
2023/09/16 00:24:40;;;;;;;15.07;13.67;;;16.50;13.30;;;;;;5075255;28;20729;-45
2023/09/16 00:27:07;;;;;;;13.80;12.60;;;16.40;17.70;;;;;;5074813;28;20427;-45
2023/09/16 00:29:33;;;;;;;13.67;12.40;;;16.40;5.80;;;;;;5076011;28;20560;-45
2023/09/16 00:32:04;;;;;;;13.83;12.63;;;16.40;1.00;;;;;;5074711;28;20435;-45
2023/09/16 00:34:29;;;;;;;13.77;12.47;;;16.40;10.20;;;;;;5074181;28;20407;-45
2023/09/16 00:36:55;;;;;;;13.87;12.57;;;16.40;16.80;;;;;;5073678;28;20422;-45
2023/09/16 00:39:20;;;;;;;13.20;12.00;;;16.30;20.10;;;;;;5053964;28;20200;-45
2023/09/16 00:41:46;;;;;;;15.40;13.90;;;16.30;20.20;;;;;;5072069;28;20314;-45
2023/09/16 00:44:12;;;;;;;13.93;12.50;;;16.30;10.80;;;;;;5073068;28;20227;-45
2023/09/16 00:46:38;;;;;;;14.60;13.17;;;16.20;19.90;;;;;;5073074;28;20204;-45
2023/09/16 00:49:04;;;;;;;13.53;12.33;;;16.20;26.40;;;;;;5051632;28;20276;-45
2023/09/16 00:51:30;;;;;;;14.00;12.70;;;16.20;37.30;;;;;;5052976;28;20237;-45
2023/09/16 00:53:56;;;;;;;14.70;13.40;;;16.20;48.00;;;;;;5054286;28;20526;-45
2023/09/16 00:56:22;;;;;;;15.70;14.20;;;16.20;65.00;;;;;;5057614;28;20447;-45
2023/09/16 00:58:48;;;;;;;15.50;14.00;;;16.20;92.40;;;;;;5061248;28;20427;-44
2023/09/16 01:01:15;;;;;;;15.07;13.70;;;16.20;99.90;;;;;;5058756;28;20438;-45
2023/09/16 01:03:41;;;;;;;15.50;14.00;;;16.20;99.90;;;;;;5075632;28;20628;-44
2023/09/16 01:06:08;;;;;;;15.47;14.07;;;16.20;99.90;;;;;;5079626;28;20428;-45
2023/09/16 01:08:34;;;;;;;15.80;14.40;;;16.20;99.90;;;;;;5079961;28;20419;-45
2023/09/16 01:11:04;;;;;;;16.20;14.67;;;16.20;99.90;;;;;;5079568;28;20435;-45
2023/09/16 01:13:33;;;;;;;15.30;13.87;;;16.20;99.90;;;;;;5062312;28;20185;-43
2023/09/16 01:16:31;;;;;;;15.03;13.60;;;16.30;99.90;;;;;;5078545;28;20411;-45
2023/09/16 01:19:15;;;;;;;14.70;13.30;;;16.30;99.90;;;;;;5076727;28;20720;-44
2023/09/16 01:21:41;;;;;;;15.20;13.80;;;16.30;99.90;;;;;;5060331;28;20538;-45
2023/09/16 01:24:23;;;;;;;15.60;14.20;;;16.30;99.90;;;;;;5076605;28;20741;-44
2023/09/16 01:26:49;;;;;;;16.07;14.60;;;16.30;99.90;;;;;;5078375;28;20418;-45
2023/09/16 01:29:16;;;;;;;16.73;15.23;;;16.20;99.90;;;;;;5044750;28;20904;-46
2023/09/16 01:31:43;;;;;;;14.37;12.97;;;16.20;99.90;;;;;;5045247;28;20354;-44
2023/09/16 01:34:24;;;;;;;15.83;14.27;;;16.20;99.90;;;;;;5079840;28;20426;-46
2023/09/16 01:36:52;;;;;;;15.50;14.10;;;16.20;99.90;;;;;;5059971;28;20431;-44
2023/09/16 01:39:21;;;;;;;17.40;14.70;;;16.20;99.90;;;;;;5060416;28;20526;-44
2023/09/16 01:41:49;;;;;;;15.70;14.27;;;16.20;99.90;;;;;;5060468;28;20772;-44
2023/09/16 01:44:14;;;;;;;16.07;14.57;;;16.20;99.90;;;;;;5060193;28;20513;-44
2023/09/16 01:46:40;;;;;;;17.50;15.80;;;16.20;99.90;;;;;;5078179;28;20438;-45
2023/09/16 01:49:05;;;;;;;15.90;14.40;;;16.20;99.90;;;;;;5077907;28;20184;-45
2023/09/16 01:51:31;;;;;;;16.83;15.27;;;16.10;99.90;;;;;;5078450;28;20236;-44
2023/09/16 01:53:57;;;;;;;17.40;15.70;;;16.10;99.90;;;;;;5078326;28;20273;-44
2023/09/16 01:56:22;;;;;;;16.57;15.07;;;16.10;99.90;;;;;;5078964;28;20466;-44
2023/09/16 01:58:48;;;;;;;15.37;13.97;;;16.10;99.90;;;;;;5079919;28;20284;-45
2023/09/16 02:01:14;;;;;;;15.60;14.20;;;16.00;99.90;;;;;;5079269;28;20280;-44
2023/09/16 02:03:40;;;;;;;15.50;14.17;;;16.00;99.90;;;;;;5077980;28;20227;-45
2023/09/16 02:06:06;;;;;;;15.50;14.10;;;16.00;99.90;;;;;;5077999;28;20667;-44
2023/09/16 02:08:32;;;;;;;14.47;13.10;;;15.90;99.90;;;;;;5077805;28;20239;-45
2023/09/16 02:10:57;;;;;;;13.03;11.83;;;15.90;99.90;;;;;;5077656;28;20867;-45
2023/09/16 02:13:23;;;;;;;14.90;13.50;;;15.80;99.90;;;;;;5059137;28;20188;-44
2023/09/16 02:15:48;;;;;;;15.80;14.30;;;15.80;99.90;;;;;;5077779;28;20277;-45
2023/09/16 02:18:14;;;;;;;13.93;12.63;;;15.80;99.90;;;;;;5078195;28;20189;-46
2023/09/16 02:20:40;;;;;;;15.43;13.93;;;15.80;99.90;;;;;;5078005;28;20549;-45
2023/09/16 02:23:06;;;;;;;14.73;13.33;;;15.80;99.90;;;;;;5078409;28;20220;-45
2023/09/16 02:25:35;;;;;;;15.30;14.00;;;15.80;99.90;;;;;;5078427;28;20242;-44
2023/09/16 02:28:01;;;;;;;14.70;13.40;;;15.80;99.90;;;;;;5078295;28;20741;-44
2023/09/16 02:30:26;;;;;;;16.57;14.97;;;15.80;99.90;;;;;;5079057;28;20697;-44
2023/09/16 02:32:52;;;;;;;15.60;14.20;;;15.80;99.90;;;;;;5078522;28;20434;-45
2023/09/16 02:35:18;;;;;;;16.40;14.90;;;15.80;99.90;;;;;;5077868;28;20181;-45
2023/09/16 02:37:43;;;;;;;16.73;15.33;;;15.80;99.90;;;;;;5079164;28;20193;-44
2023/09/16 02:40:09;;;;;;;17.60;16.00;;;15.80;99.90;;;;;;5078425;28;20173;-45
2023/09/16 02:42:35;;;;;;;17.43;15.80;;;15.80;99.90;;;;;;5077771;28;20188;-44
2023/09/16 02:45:01;;;;;;;18.10;16.40;;;15.90;99.90;;;;;;5077781;28;20506;-44
2023/09/16 02:50:48;;;;;;;17.00;15.43;;;15.90;99.90;;;;;;5076780;28;20351;-44
2023/09/16 02:53:15;;;;;;;18.23;16.63;;;15.90;99.90;;;;;;5077304;28;20524;-44
2023/09/16 02:55:41;;;;;;;19.90;18.10;;;15.90;99.90;;;;;;5075786;28;20179;-45
2023/09/16 02:58:07;;;;;;;20.70;18.80;;;15.90;99.90;;;;;;5076909;28;20403;-44
2023/09/16 03:00:33;;;;;;;17.73;16.10;;;15.90;99.90;;;;;;5076720;28;20502;-44
2023/09/16 03:02:58;;;;;;;18.33;16.67;;;15.80;99.90;;;;;;5076596;28;20431;-44
2023/09/16 03:05:24;;;;;;;20.00;18.10;;;15.80;99.90;;;;;;5077857;28;20181;-44
2023/09/16 03:07:50;;;;;;;19.60;17.70;;;15.80;99.90;;;;;;5077872;28;20427;-43
2023/09/16 03:10:16;;;;;;;20.77;18.87;;;15.90;99.90;;;;;;5077777;28;20284;-44
2023/09/16 03:12:41;;;;;;;19.13;17.33;;;15.90;99.90;;;;;;5078321;28;20272;-44
2023/09/16 03:15:07;;;;;;;20.50;18.60;;;15.90;99.90;;;;;;5078358;28;20181;-43
2023/09/16 03:17:33;;;;;;;20.10;18.30;;;15.90;99.90;;;;;;5077162;28;20213;-44
2023/09/16 03:19:59;;;;;;;22.77;20.47;;;15.90;99.90;;;;;;5078095;28;20423;-44
2023/09/16 03:22:24;;;;;;;22.00;19.87;;;15.90;99.90;;;;;;5077308;28;20181;-44
2023/09/16 03:24:50;;;;;;;21.40;19.40;;;15.90;1.00;;;;;;5076281;28;20248;-43
2023/09/16 03:27:15;;;;;;;21.50;19.40;;;16.00;1.00;;;;;;5077566;28;20272;-43
2023/09/16 03:29:41;;;;;;;24.53;22.40;;;16.00;1.00;;;;;;5077402;28;20192;-44
2023/09/16 03:32:06;;;;;;;23.20;20.97;;;16.10;1.00;;;;;;5077586;28;20192;-44
2023/09/16 03:34:32;;;;;;;22.17;19.93;;;16.10;1.00;;;;;;5077468;28;20578;-43
2023/09/16 03:36:58;;;;;;;21.03;19.13;;;16.10;1.00;;;;;;5077455;28;20266;-43
2023/09/16 03:39:24;;;;;;;20.67;18.67;;;16.10;1.00;;;;;;5076538;28;20196;-44
2023/09/16 03:41:49;;;;;;;19.70;17.70;;;16.00;1.00;;;;;;5076196;28;20435;-44
2023/09/16 03:44:15;;;;;;;20.63;18.73;;;16.00;1.00;;;;;;5075389;28;20232;-43
2023/09/16 03:46:41;;;;;;;19.53;17.70;;;16.00;1.00;;;;;;5075954;28;20177;-44
2023/09/16 03:49:07;;;;;;;19.90;18.00;;;16.00;1.00;;;;;;5076031;28;20435;-43
2023/09/16 03:51:37;;;;;;;19.73;17.73;;;16.00;1.00;;;;;;5076199;28;20228;-42
2023/09/16 03:54:04;;;;;;;20.13;18.33;;;16.00;1.00;;;;;;5057587;28;20424;-44
2023/09/16 03:56:29;;;;;;;19.77;17.90;;;16.00;99.90;;;;;;5075711;28;20500;-43
2023/09/16 03:58:55;;;;;;;21.00;19.00;;;16.00;99.90;;;;;;5076682;28;20443;-44
2023/09/16 04:01:21;;;;;;;19.77;18.07;;;16.00;99.90;;;;;;5077358;28;20219;-36
2023/09/16 04:03:47;;;;;;;18.63;16.87;;;16.00;99.90;;;;;;5058063;28;20247;-42
2023/09/16 04:06:12;;;;;;;19.23;17.40;;;16.00;99.90;;;;;;5075528;28;20212;-37
2023/09/16 04:08:38;;;;;;;20.60;18.60;;;16.00;99.90;;;;;;5074839;28;20188;-36
2023/09/16 04:11:04;;;;;;;20.43;18.47;;;16.00;99.90;;;;;;5074506;28;20429;-37
2023/09/16 04:13:29;;;;;;;18.67;17.03;;;16.10;99.90;;;;;;5056475;28;20246;-38
2023/09/16 04:15:55;;;;;;;18.40;16.80;;;16.10;99.90;;;;;;5074385;28;20189;-40
2023/09/16 04:18:20;;;;;;;19.23;17.43;;;16.10;99.90;;;;;;5074146;28;20195;-39
2023/09/16 04:20:47;;;;;;;17.90;16.30;;;16.00;99.90;;;;;;5074799;28;20264;-37
2023/09/16 04:23:13;;;;;;;17.73;16.03;;;16.00;99.90;;;;;;5074858;28;20656;-36
2023/09/16 04:25:39;;;;;;;17.47;15.87;;;16.00;99.90;;;;;;5075592;28;20420;-37
2023/09/16 04:28:04;;;;;;;20.93;18.83;;;16.00;99.90;;;;;;5073134;28;20193;-36
2023/09/16 04:30:30;;;;;;;19.10;17.20;;;16.00;99.90;;;;;;5073973;28;20293;-37
2023/09/16 04:32:56;;;;;;;18.67;16.77;;;16.00;99.90;;;;;;5075100;28;20376;-36
2023/09/16 04:35:22;;;;;;;18.57;16.77;;;16.00;99.90;;;;;;5075118;28;20250;-36
2023/09/16 04:37:48;;;;;;;19.53;17.63;;;16.00;99.90;;;;;;5076583;28;20411;-38
2023/09/16 04:40:14;;;;;;;18.77;16.97;;;16.00;99.90;;;;;;5076251;28;20177;-37
2023/09/16 04:42:40;;;;;;;19.90;18.00;;;15.90;99.90;;;;;;5076495;28;20182;-36
2023/09/16 04:45:06;;;;;;;19.30;17.50;;;15.90;99.90;;;;;;5075084;28;20478;-37
2023/09/16 04:47:32;;;;;;;19.73;17.93;;;15.90;99.90;;;;;;5073864;28;20181;-37
2023/09/16 04:49:57;;;;;;;19.17;17.27;;;15.90;99.90;;;;;;5056614;28;20467;-38
2023/09/16 04:52:25;;;;;;;20.47;18.47;;;15.80;99.90;;;;;;5076190;28;20200;-39
2023/09/16 04:54:54;;;;;;;20.07;18.17;;;15.80;99.90;;;;;;5076028;28;20197;-39
2023/09/16 04:57:20;;;;;;;20.97;17.57;;;15.80;99.90;;;;;;5059514;28;20459;-37
2023/09/16 04:59:47;;;;;;;20.60;18.60;;;15.80;99.90;;;;;;5075356;28;20431;-37
2023/09/16 05:02:13;;;;;;;23.00;20.60;;;15.80;99.90;;;;;;5075198;28;20748;-37
2023/09/16 05:04:38;;;;;;;21.57;19.47;;;15.80;99.90;;;;;;5073594;28;20482;-37
2023/09/16 05:07:07;;;;;;;21.07;19.03;;;15.80;99.90;;;;;;5072335;28;20934;-40
2023/09/16 05:09:35;;;;;;;21.07;19.10;;;15.80;1.00;;;;;;5075547;28;20331;-38
2023/09/16 05:12:00;;;;;;;21.87;19.77;;;15.80;1.00;;;;;;5056953;28;20471;-38
2023/09/16 05:14:26;;;;;;;22.07;19.87;;;15.80;99.90;;;;;;5073744;28;20528;-37
2023/09/16 05:16:51;;;;;;;21.80;19.67;;;15.80;99.90;;;;;;5072663;28;20196;-38
2023/09/16 05:19:17;;;;;;;20.60;18.60;;;15.80;99.90;;;;;;5071314;28;20177;-36
2023/09/16 05:21:43;;;;;;;22.63;20.43;;;15.80;99.90;;;;;;5071866;28;20557;-36
2023/09/16 05:24:08;;;;;;;20.87;18.97;;;15.80;99.90;;;;;;5073877;28;20492;-39
2023/09/16 05:26:34;;;;;;;21.00;18.90;;;15.80;99.90;;;;;;5073161;28;20428;-37
2023/09/16 05:29:00;;;;;;;22.40;20.30;;;15.90;99.90;;;;;;5073230;28;20176;-39
2023/09/16 05:31:26;;;;;;;24.20;21.70;;;15.90;99.90;;;;;;5055926;28;20192;-37
2023/09/16 05:33:51;;;;;;;21.23;19.13;;;15.90;99.90;;;;;;5057118;28;20199;-37
2023/09/16 05:36:18;;;;;;;21.90;19.80;;;15.90;99.90;;;;;;5073564;28;20431;-38
2023/09/16 05:38:43;;;;;;;21.60;19.37;;;15.90;99.90;;;;;;5075266;28;20189;-38
2023/09/16 05:41:09;;;;;;;20.00;18.10;;;15.90;99.90;;;;;;5075312;28;20430;-38
2023/09/16 05:43:34;;;;;;;20.20;18.10;;;15.90;99.90;;;;;;5079146;28;20559;-38
2023/09/16 05:46:01;;;;;;;20.33;18.40;;;15.90;99.90;;;;;;5076072;28;20204;-37
2023/09/16 05:48:27;;;;;;;21.97;19.97;;;16.00;99.90;;;;;;5077437;28;20237;-38
2023/09/16 05:50:59;;;;;;;22.83;20.60;;;16.10;99.90;;;;;;5078141;28;20477;-39
2023/09/16 05:53:26;;;;;;;21.90;19.90;;;16.20;99.90;;;;;;5074880;28;20892;-37
2023/09/16 05:55:53;;;;;;;19.93;18.07;;;16.30;99.90;;;;;;5079540;28;20442;-37
2023/09/16 05:58:19;;;;;;;21.00;19.10;;;16.40;99.90;;;;;;5078463;28;20661;-39
2023/09/16 06:00:54;;;;;;;22.47;20.27;;;16.60;99.90;;;;;;5079192;28;20535;-38
2023/09/16 06:03:19;;;;;;;23.77;21.37;;;16.70;99.90;;;;;;5078439;28;20728;-39
2023/09/16 06:05:45;;;;;;;23.20;21.13;;;17.00;99.90;;;;;;5077324;28;20431;-38
2023/09/16 06:08:12;;;;;;;21.50;19.43;;;17.30;99.90;;;;;;5077514;28;20237;-38
2023/09/16 06:10:37;;;;;;;21.00;19.07;;;17.60;99.90;;;;;;5069778;28;20166;-38
2023/09/16 06:13:03;;;;;;;22.63;20.50;;;18.00;99.90;;;;;;5058874;28;20418;-37
2023/09/16 06:15:29;;;;;;;23.20;21.00;;;18.20;99.90;;;;;;5059592;28;20186;-40
2023/09/16 06:17:55;;;;;;;22.30;20.23;;;18.50;1.00;;;;;;5024678;28;20284;-42
2023/09/16 06:20:21;;;;;;;22.03;20.13;;;18.70;1.00;;;;;;5058417;28;20532;-37
2023/09/16 06:22:46;;;;;;;17.47;15.90;;;18.90;1.00;;;;;;5057890;28;20778;-39
2023/09/16 06:25:12;;;;;;;24.83;22.37;;;19.10;1.00;;;;;;5040673;28;20233;-38
2023/09/16 06:27:37;;;;;;;22.73;20.63;;;19.40;99.90;;;;;;5039456;28;20215;-38
2023/09/16 06:30:03;;;;;;;20.83;18.93;;;19.50;99.90;;;;;;5058910;28;20260;-39
2023/09/16 06:32:29;;;;;;;19.90;18.00;;;19.60;99.90;;;;;;5057365;28;20194;-40
2023/09/16 06:34:55;;;;;;;18.60;16.70;;;19.60;99.90;;;;;;5041018;28;20432;-38
2023/09/16 06:37:20;;;;;;;19.93;18.03;;;19.70;99.90;;;;;;5058382;28;20178;-39
2023/09/16 06:39:47;;;;;;;22.67;20.47;;;19.70;99.90;;;;;;5038354;28;20379;-39
2023/09/16 06:42:13;;;;;;;22.47;20.37;;;19.70;1.00;;;;;;5059501;28;20189;-39
2023/09/16 06:44:38;;;;;;;23.30;21.10;;;19.60;11.00;;;;;;5075814;28;20864;-43
2023/09/16 06:47:04;;;;;;;23.50;21.30;;;19.50;99.90;;;;;;5074386;28;20551;-39
2023/09/16 06:49:29;;;;;;;22.53;20.40;;;19.50;99.90;;;;;;5074957;28;20552;-38
2023/09/16 06:51:55;;;;;;;20.40;18.60;;;19.50;99.90;;;;;;5076344;28;20177;-40
2023/09/16 06:54:20;;;;;;;21.87;19.77;;;19.60;99.90;;;;;;5075053;28;20185;-38
2023/09/16 06:56:46;;;;;;;20.97;19.17;;;19.70;99.90;;;;;;5076460;28;20570;-38
2023/09/16 06:59:12;;;;;;;20.63;18.83;;;19.70;99.90;;;;;;5075894;28;20455;-38
2023/09/16 07:01:37;;;;;;;21.53;19.50;;;19.90;99.90;;;;;;5073483;28;20181;-39
2023/09/16 07:04:03;;;;;;;18.20;16.60;;;20.10;7.00;;;;;;5074002;28;20213;-38
2023/09/16 07:06:29;;;;;;;19.03;17.33;;;20.40;1.00;;;;;;5073855;28;20295;-40
2023/09/16 07:08:55;;;;;;;19.60;17.70;;;20.60;1.00;;;;;;5058400;28;20511;-38
2023/09/16 07:11:20;;;;;;;21.43;19.43;;;20.80;99.90;;;;;;5075777;28;20193;-38
2023/09/16 07:13:46;;;;;;;18.27;16.57;;;20.80;99.90;;;;;;5056380;28;20193;-38
2023/09/16 07:16:12;;;;;;;18.90;17.17;;;21.00;99.90;;;;;;5054122;28;20429;-39
2023/09/16 07:18:38;;;;;;;18.90;17.20;;;21.30;8.70;;;;;;5074624;28;20280;-42
2023/09/16 07:21:04;;;;;;;19.33;17.63;;;21.50;1.00;;;;;;5074113;28;20439;-39
2023/09/16 07:23:30;;;;;;;18.57;16.83;;;21.70;1.00;;;;;;5072886;28;20485;-37
2023/09/16 07:25:57;;;;;;;18.53;16.83;;;21.90;1.00;;;;;;5073415;28;20189;-41
2023/09/16 07:28:27;;;;;;;17.63;16.13;;;21.90;1.00;;;;;;5066692;28;20190;-37
2023/09/16 07:30:53;;;;;;;17.60;16.10;;;22.10;99.90;;;;;;5055180;28;20432;-40
2023/09/16 07:33:19;;;;;;;16.10;14.50;;;22.40;99.90;;;;;;5045870;28;20431;-40
2023/09/16 07:35:44;;;;;;;14.93;13.63;;;22.60;63.00;;;;;;5073213;28;20454;-41
2023/09/16 07:38:10;;;;;;;14.20;13.00;;;22.90;10.30;;;;;;5054333;28;20189;-41
2023/09/16 07:40:38;;;;;;;14.23;13.03;;;23.20;1.00;;;;;;5073437;28;20191;-40
2023/09/16 07:43:08;;;;;;;15.77;14.30;;;23.50;75.20;;;;;;5074929;28;20188;-41
2023/09/16 07:45:34;;;;;;;14.10;12.80;;;23.60;1.00;;;;;;5077036;28;20423;-40
2023/09/16 07:47:59;;;;;;;15.30;13.97;;;23.60;1.00;;;;;;5075961;28;20420;-39
2023/09/16 07:50:25;;;;;;;15.60;14.30;;;23.60;99.90;;;;;;5057968;28;20828;-38
2023/09/16 07:52:51;;;;;;;13.67;12.47;;;23.50;99.90;;;;;;5040834;28;20462;-38
2023/09/16 07:55:17;;;;;;;13.70;12.30;;;23.50;99.90;;;;;;5071101;28;20216;-38
2023/09/16 07:57:42;;;;;;;14.73;13.53;;;23.50;99.90;;;;;;5069880;28;20463;-43
2023/09/16 08:00:09;;;;;;;13.73;12.37;;;23.70;99.90;;;;;;5071589;28;20227;-38
2023/09/16 08:02:35;;;;;;;13.17;12.03;;;23.80;99.90;;;;;;5074000;28;20283;-38
2023/09/16 08:05:00;;;;;;;13.87;12.57;;;23.90;99.90;;;;;;5075922;28;20573;-38
2023/09/16 08:07:26;;;;;;;15.17;13.73;;;23.80;93.10;;;;;;5076005;28;20177;-39
2023/09/16 08:09:52;;;;;;;13.10;11.80;;;23.60;99.90;;;;;;5058622;28;20196;-38
2023/09/16 08:12:19;;;;;;;14.83;13.53;;;23.40;99.90;;;;;;5075183;28;20192;-42
2023/09/16 08:14:45;;;;;;;13.43;12.23;;;23.20;99.90;;;;;;5075967;28;20185;-39
2023/09/16 08:17:11;;;;;;;13.80;12.50;;;23.20;99.90;;;;;;5075792;28;20500;-39
2023/09/16 08:19:36;;;;;;;16.43;14.93;;;23.20;99.90;;;;;;5074758;28;20420;-40
2023/09/16 08:22:02;;;;;;;15.73;14.37;;;23.10;99.90;;;;;;5074997;28;20221;-39
2023/09/16 08:24:28;;;;;;;18.27;13.77;;;23.00;99.90;;;;;;5074164;28;20235;-40
2023/09/16 08:26:53;;;;;;;14.13;12.93;;;22.80;1.00;;;;;;5071633;28;20192;-39
2023/09/16 08:29:19;;;;;;;15.17;13.80;;;22.70;1.00;;;;;;5036096;28;20189;-41
2023/09/16 08:31:45;;;;;;;14.80;13.57;;;22.60;96.10;;;;;;5054598;28;20479;-37
2023/09/16 08:34:10;;;;;;;14.13;12.90;;;22.70;99.90;;;;;;5054378;28;20181;-39
2023/09/16 08:36:36;;;;;;;13.30;12.13;;;23.00;99.90;;;;;;5053084;28;20528;-36
2023/09/16 08:39:01;;;;;;;16.00;14.50;;;23.40;1.00;;;;;;5053268;28;20194;-37
2023/09/16 08:41:52;;;;;;;13.20;12.10;;;23.70;99.90;;;;;;5037181;28;20463;-38
2023/09/16 08:44:22;;;;;;;13.17;11.97;;;24.10;99.90;;;;;;5053688;28;20538;-38
2023/09/16 08:46:59;;;;;;;13.40;12.30;;;24.60;1.00;;;;;;5035429;28;20515;-38
2023/09/16 08:49:27;;;;;;;12.80;11.70;;;24.70;1.00;;;;;;5054174;28;20434;-37
2023/09/16 08:51:54;;;;;;;12.37;11.37;;;24.80;1.00;;;;;;5036866;28;20497;-35
2023/09/16 08:54:21;;;;;;;12.47;11.47;;;24.80;99.90;;;;;;5034897;28;20668;-37
2023/09/16 08:56:48;;;;;;;11.50;10.60;;;24.80;1.00;;;;;;5052615;28;20423;-38
2023/09/16 08:59:13;;;;;;;12.27;11.27;;;25.20;1.00;;;;;;5032006;28;20526;-38
2023/09/16 09:01:41;;;;;;;11.27;10.27;;;25.60;99.90;;;;;;5033353;28;20681;-38
2023/09/16 09:04:07;;;;;;;12.80;11.70;;;26.10;99.90;;;;;;5053777;28;20583;-38
2023/09/16 09:06:32;;;;;;;11.90;10.90;;;26.70;99.90;;;;;;5053450;28;20411;-37
2023/09/16 09:08:58;;;;;;;11.70;10.63;;;27.10;99.90;;;;;;5036901;28;20214;-37
2023/09/16 09:11:24;;;;;;;10.20;9.30;;;27.50;99.90;;;;;;5054094;28;20518;-37
2023/09/16 09:13:51;;;;;;;10.80;9.90;;;27.80;99.90;;;;;;5053037;28;20220;-38
2023/09/16 09:16:17;;;;;;;9.60;8.90;;;28.10;99.90;;;;;;5036604;28;20421;-40
2023/09/16 09:18:45;;;;;;;10.97;10.07;;;28.40;99.90;;;;;;5038991;28;20450;-40
2023/09/16 09:21:11;;;;;;;10.13;9.13;;;28.80;99.90;;;;;;5039014;28;20430;-38
2023/09/16 09:23:36;;;;;;;9.23;8.10;;;29.00;99.90;;;;;;5056078;28;20881;-39
2023/09/16 09:26:02;;;;;;;9.83;8.30;;;29.10;99.90;;;;;;5055021;28;20543;-38
2023/09/16 09:28:28;;;;;;;8.20;7.60;;;29.40;99.90;;;;;;5055944;28;20524;-41
2023/09/16 09:30:57;;;;;;;8.83;8.13;;;29.90;92.20;;;;;;5039378;28;20192;-39
2023/09/16 09:33:26;;;;;;;8.20;7.60;;;30.20;98.50;;;;;;5039483;28;20428;-40
2023/09/16 09:36:14;;;;;;;8.20;7.60;;;30.30;90.70;;;;;;5056892;28;20447;-38
2023/09/16 09:38:45;;;;;;;8.03;7.43;;;30.70;90.30;;;;;;5055440;28;20841;-39
2023/09/16 09:41:11;;;;;;;7.90;7.30;;;30.90;22.50;;;;;;5036955;28;20435;-38
2023/09/16 09:43:37;;;;;;;7.67;7.13;;;31.20;80.40;;;;;;5056414;28;20873;-39
2023/09/16 09:46:03;;;;;;;8.20;7.60;;;31.10;99.90;;;;;;5056459;28;20514;-39
2023/09/16 09:48:33;;;;;;;8.20;7.60;;;30.80;68.90;;;;;;5036294;28;20271;-39
2023/09/16 09:51:00;;;;;;;7.47;6.87;;;30.30;54.80;;;;;;5039392;28;20642;-40
2023/09/16 09:53:26;;;;;;;7.87;7.17;;;30.60;99.40;;;;;;5038232;28;20412;-38
2023/09/16 09:55:52;;;;;;;7.00;6.50;;;31.10;99.90;;;;;;5055042;28;20413;-39
2023/09/16 09:58:19;;;;;;;7.17;6.63;;;31.50;45.60;;;;;;5038322;28;20888;-38
2023/09/16 10:00:47;;;;;;;7.63;7.03;;;32.00;50.60;;;;;;5054764;28;20589;-41
2023/09/16 10:03:14;;;;;;;7.50;7.00;;;32.40;57.00;;;;;;5055164;28;20530;-39
2023/09/16 10:05:40;;;;;;;7.10;6.50;;;32.40;10.30;;;;;;5055158;28;20402;-42
2023/09/16 10:08:05;;;;;;;7.60;7.10;;;32.60;1.00;;;;;;5055191;28;20405;-41
2023/09/16 10:10:31;;;;;;;7.00;6.50;;;32.70;1.00;;;;;;5054801;28;20517;-37
2023/09/16 10:12:57;;;;;;;7.00;6.40;;;33.00;1.00;;;;;;5055959;28;20453;-39
2023/09/16 10:15:25;;;;;;;6.47;6.07;;;33.00;1.00;;;;;;5055496;28;20424;-37
2023/09/16 10:17:51;;;;;;;6.67;6.27;;;33.20;1.00;;;;;;5055142;28;20407;-37
2023/09/16 10:20:17;;;;;;;6.33;5.90;;;33.30;1.00;;;;;;5039308;28;20420;-38
2023/09/16 10:22:43;;;;;;;5.90;5.50;;;33.40;1.00;;;;;;5055987;28;20424;-39
2023/09/16 10:25:09;;;;;;;6.70;6.20;;;33.40;1.00;;;;;;5038024;28;20252;-40
2023/09/16 10:27:47;;;;;;;5.50;5.10;;;33.60;1.00;;;;;;5020519;28;20395;-38
2023/09/16 10:30:14;;;;;;;7.80;5.53;;;33.80;1.00;;;;;;5038853;28;20399;-38
2023/09/16 10:32:40;;;;;;;5.73;5.33;;;34.10;1.00;;;;;;5055138;28;20447;-39
2023/09/16 10:35:06;;;;;;;5.43;4.97;;;34.30;1.00;;;;;;5055254;28;20796;-38
2023/09/16 10:37:33;;;;;;;4.90;4.60;;;34.40;1.00;;;;;;5063072;28;20864;-39
2023/09/16 10:39:59;;;;;;;4.83;4.43;;;34.50;1.00;;;;;;5074374;28;20439;-43
2023/09/16 10:42:26;;;;;;;5.07;4.70;;;34.70;1.00;;;;;;5074421;28;20420;-42
2023/09/16 10:44:54;;;;;;;4.60;4.20;;;34.60;1.00;;;;;;5075300;28;20509;-39
2023/09/16 10:47:21;;;;;;;4.47;4.17;;;34.90;1.00;;;;;;5074780;28;20389;-40
2023/09/16 10:49:47;;;;;;;4.93;4.63;;;34.80;1.00;;;;;;5073331;28;20560;-42
2023/09/16 10:52:16;;;;;;;5.57;5.07;;;34.70;1.00;;;;;;5073478;28;20478;-39
2023/09/16 10:54:48;;;;;;;4.90;4.53;;;34.90;1.00;;;;;;5075242;28;20188;-39
2023/09/16 10:57:18;;;;;;;4.73;4.43;;;35.40;1.00;;;;;;5057003;28;20406;-40
2023/09/16 10:59:47;;;;;;;5.60;5.20;;;36.00;1.00;;;;;;5068751;28;20429;-41
2023/09/16 11:02:35;;;;;;;4.87;4.57;;;36.30;1.00;;;;;;5040527;28;20406;-39
2023/09/16 11:05:01;;;;;;;4.20;3.80;;;36.70;1.00;;;;;;5077927;28;20473;-41
2023/09/16 11:07:27;;;;;;;4.50;4.20;;;36.70;1.00;;;;;;5076820;28;20423;-43
2023/09/16 11:09:54;;;;;;;4.83;4.53;;;37.30;1.00;;;;;;5058338;28;20208;-39
2023/09/16 11:12:19;;;;;;;4.93;4.60;;;37.10;1.00;;;;;;5074989;28;20406;-42
2023/09/16 11:14:45;;;;;;;4.57;4.27;;;36.60;1.00;;;;;;5074957;28;20438;-41
2023/09/16 11:17:14;;;;;;;4.60;4.20;;;36.60;1.00;;;;;;5041711;28;20424;-39
2023/09/16 11:19:42;;;;;;;6.30;5.80;;;37.00;1.00;;;;;;5077429;28;20311;-44
2023/09/16 11:22:09;;;;;;;5.10;4.80;;;37.30;1.00;;;;;;5059961;28;20469;-41
2023/09/16 11:24:36;;;;;;;4.50;4.20;;;37.60;1.00;;;;;;5074664;28;20442;-40
2023/09/16 11:27:02;;;;;;;5.13;4.70;;;36.90;1.00;;;;;;5071931;28;20470;-41
2023/09/16 11:29:29;;;;;;;4.70;4.40;;;35.90;1.00;;;;;;5056813;28;20386;-41
2023/09/16 11:31:55;;;;;;;5.07;4.77;;;35.70;1.00;;;;;;5074470;28;20458;-41
2023/09/16 11:34:24;;;;;;;5.17;4.77;;;35.40;1.00;;;;;;5039934;28;20437;-40
2023/09/16 11:36:58;;;;;;;5.03;4.63;;;34.80;1.00;;;;;;5056494;28;20417;-42
2023/09/16 11:39:40;;;;;;;4.83;4.43;;;33.90;1.00;;;;;;5075937;28;20423;-40
2023/09/16 11:42:07;;;;;;;4.80;4.40;;;33.30;1.00;;;;;;5076092;28;20696;-39
2023/09/16 11:44:36;;;;;;;4.20;3.90;;;33.80;1.00;;;;;;5055801;28;20763;-42
2023/09/16 11:47:03;;;;;;;4.63;4.23;;;34.10;1.00;;;;;;5074132;28;20390;-42
2023/09/16 11:49:33;;;;;;;3.97;3.50;;;34.10;1.00;;;;;;5058524;28;20425;-39
2023/09/16 11:51:59;;;;;;;3.80;3.50;;;34.60;1.00;;;;;;5074815;28;20394;-40
2023/09/16 11:54:25;;;;;;;3.57;3.27;;;35.40;1.00;;;;;;5071863;28;20419;-41
2023/09/16 11:56:51;;;;;;;3.40;2.73;;;35.90;1.00;;;;;;5072349;28;20398;-44
2023/09/16 11:59:16;;;;;;;3.27;3.07;;;36.30;1.00;;;;;;5055891;28;20263;-40
2023/09/16 12:01:42;;;;;;;3.50;3.30;;;36.30;1.00;;;;;;5053242;28;20181;-41
2023/09/16 12:04:10;;;;;;;3.17;2.97;;;36.80;1.00;;;;;;5036882;28;20222;-39
2023/09/16 12:06:37;;;;;;;3.13;2.93;;;36.90;1.00;;;;;;5037794;28;20441;-41
2023/09/16 12:09:06;;;;;;;3.43;3.13;;;37.00;1.00;;;;;;5053281;28;20875;-39
2023/09/16 12:11:32;;;;;;;3.53;3.23;;;37.60;1.00;;;;;;5052809;28;20392;-39
2023/09/16 12:14:00;;;;;;;3.20;3.00;;;38.30;1.00;;;;;;5036503;28;20499;-43
2023/09/16 12:16:26;;;;;;;3.67;2.90;;;38.30;1.00;;;;;;5055058;28;20439;-40
2023/09/16 12:18:51;;;;;;;3.60;3.30;;;37.80;1.00;;;;;;5020004;28;20407;-41
2023/09/16 12:21:17;;;;;;;3.20;2.90;;;37.60;1.00;;;;;;5052765;28;20756;-44
2023/09/16 12:23:48;;;;;;;3.13;2.93;;;37.80;1.00;;;;;;5053699;28;20228;-42
2023/09/16 12:26:14;;;;;;;3.33;3.03;;;38.30;1.00;;;;;;5057214;28;20192;-40
2023/09/16 12:28:40;;;;;;;2.70;2.50;;;38.80;1.00;;;;;;5052344;28;20733;-41
2023/09/16 12:31:11;;;;;;;3.87;3.57;;;39.10;1.00;;;;;;5052808;28;20482;-41
2023/09/16 12:33:38;;;;;;;2.60;2.40;;;39.70;1.00;;;;;;5034130;28;20420;-40
2023/09/16 12:36:04;;;;;;;3.10;2.30;;;39.20;1.00;;;;;;5034141;28;20837;-41